Time;durP1;ratioP1;P1;durP2;ratioP2;P2;SDS_P1;SDS_P2;PMS_P1;PMS_P2;Temp;Humidity;BMP_temperature;BMP_pressure;BME280_temperature;BME280_humidity;BME280_pressure;Samples;Min_cycle;Max_cycle;Signal;HPM_P1;HPM_P2
2023/05/26 00:01:07;;;;;;;25.90;6.07;;;8.90;99.90;;;;;;5043541;28;20601;-79
2023/05/26 00:03:34;;;;;;;28.85;6.95;;;8.80;99.90;;;;;;5026342;28;20399;-78
2023/05/26 00:06:00;;;;;;;29.75;7.13;;;8.90;99.90;;;;;;5024084;28;20434;-80
2023/05/26 00:08:26;;;;;;;23.50;6.03;;;8.70;99.90;;;;;;5026541;28;20431;-78
2023/05/26 00:10:52;;;;;;;30.40;6.67;;;8.70;99.90;;;;;;5030997;28;20426;-76
2023/05/26 00:13:17;;;;;;;27.93;6.90;;;8.80;99.90;;;;;;5026003;28;20446;-77
2023/05/26 00:15:43;;;;;;;18.03;5.60;;;8.60;99.90;;;;;;5020648;28;20423;-80
2023/05/26 00:18:09;;;;;;;33.03;8.27;;;8.50;99.90;;;;;;5007590;28;20427;-76
2023/05/26 00:20:35;;;;;;;26.70;6.50;;;8.50;99.90;;;;;;5018292;28;20457;-76
2023/05/26 00:23:02;;;;;;;29.70;6.87;;;8.60;99.90;;;;;;5032293;28;20468;-78
2023/05/26 00:25:27;;;;;;;24.63;7.40;;;8.50;99.90;;;;;;5033841;28;20510;-78
2023/05/26 00:27:53;;;;;;;27.03;7.37;;;8.50;99.90;;;;;;5034097;28;20525;-76
2023/05/26 00:30:19;;;;;;;25.50;5.97;;;8.40;99.90;;;;;;5044765;28;20421;-79
2023/05/26 00:32:44;;;;;;;28.63;7.27;;;8.30;99.90;;;;;;5049046;28;20842;-77
2023/05/26 00:35:10;;;;;;;28.53;8.17;;;8.30;99.90;;;;;;5021926;28;20759;-77
2023/05/26 00:37:36;;;;;;;25.95;6.55;;;8.40;99.90;;;;;;5029724;28;21163;-79
2023/05/26 00:40:01;;;;;;;30.77;6.72;;;8.40;99.90;;;;;;5040841;28;21122;-78
2023/05/26 00:42:27;;;;;;;31.48;6.72;;;8.30;99.90;;;;;;5044203;28;20465;-79
2023/05/26 00:44:53;;;;;;;29.65;7.30;;;8.20;99.90;;;;;;5030285;28;20929;-78
2023/05/26 00:47:19;;;;;;;31.63;7.25;;;8.40;99.90;;;;;;5039743;28;20476;-78
2023/05/26 00:49:45;;;;;;;29.25;6.30;;;8.40;99.90;;;;;;5047270;28;20834;-80
2023/05/26 00:52:11;;;;;;;29.52;6.63;;;8.20;99.90;;;;;;5025673;28;20787;-79
2023/05/26 00:54:42;;;;;;;27.50;6.47;;;8.30;99.90;;;;;;5033922;28;20429;-79
2023/05/26 00:57:08;;;;;;;26.17;5.97;;;8.30;99.90;;;;;;5045303;28;20432;-78
2023/05/26 00:59:34;;;;;;;30.73;7.00;;;8.40;99.90;;;;;;5028040;28;20922;-81
2023/05/26 01:02:00;;;;;;;30.08;7.45;;;8.40;99.90;;;;;;5118202;22;20428;-79
2023/05/26 01:04:27;;;;;;;28.88;7.55;;;8.40;99.90;;;;;;5047888;28;20457;-75
2023/05/26 01:06:55;;;;;;;29.70;7.03;;;8.30;99.90;;;;;;5047468;28;20449;-77
2023/05/26 01:09:21;;;;;;;29.90;7.65;;;8.40;99.90;;;;;;5046223;28;20441;-79
2023/05/26 01:12:08;;;;;;;24.15;6.65;;;8.30;99.90;;;;;;5048693;28;20889;-78
2023/05/26 01:14:47;;;;;;;23.35;6.10;;;8.30;99.90;;;;;;5048095;28;20425;-79
2023/05/26 01:17:22;;;;;;;42.10;8.50;;;8.30;99.90;;;;;;5048538;28;20433;-77
2023/05/26 01:20:10;;;;;;;31.83;7.63;;;8.40;99.90;;;;;;5045458;28;20475;-78
2023/05/26 01:22:45;;;;;;;30.27;6.32;;;8.30;99.90;;;;;;5047234;28;20429;-78
2023/05/26 01:25:46;;;;;;;24.00;6.45;;;8.30;99.90;;;;;;5047604;28;20443;-78
2023/05/26 01:28:22;;;;;;;30.17;7.88;;;8.40;99.90;;;;;;4992428;28;20445;-78
2023/05/26 01:30:49;;;;;;;29.38;6.75;;;8.40;99.90;;;;;;5035271;28;20442;-76
2023/05/26 01:33:15;;;;;;;34.30;7.32;;;8.30;99.90;;;;;;5047963;28;20432;-78
2023/05/26 01:35:41;;;;;;;26.90;7.68;;;8.30;99.90;;;;;;5047036;28;20434;-78
2023/05/26 01:38:07;;;;;;;29.35;7.80;;;8.30;99.90;;;;;;5046882;28;20752;-77
2023/05/26 01:40:35;;;;;;;25.63;6.38;;;8.20;99.90;;;;;;5046064;28;20429;-78
2023/05/26 01:43:03;;;;;;;24.63;6.90;;;8.30;99.90;;;;;;5047014;28;20429;-76
2023/05/26 01:45:40;;;;;;;26.50;7.15;;;8.40;99.90;;;;;;5047154;28;21382;-78
2023/05/26 01:48:08;;;;;;;28.63;7.53;;;8.30;99.90;;;;;;5048858;28;20429;-78
2023/05/26 01:50:49;;;;;;;32.22;7.72;;;8.30;99.90;;;;;;5051185;28;20489;-78
2023/05/26 01:53:16;;;;;;;26.17;6.97;;;8.30;99.90;;;;;;5031481;28;20437;-77
2023/05/26 01:55:42;;;;;;;35.17;6.93;;;8.40;99.90;;;;;;5046353;28;20435;-77
2023/05/26 01:58:09;;;;;;;32.05;7.78;;;8.40;99.90;;;;;;5038524;28;20422;-76
2023/05/26 02:00:35;;;;;;;30.95;7.43;;;8.30;99.90;;;;;;5031079;28;20516;-77
2023/05/26 02:03:01;;;;;;;25.52;7.40;;;8.40;99.90;;;;;;5048427;28;20997;-78
2023/05/26 02:05:27;;;;;;;26.98;8.02;;;8.40;99.90;;;;;;5038320;28;20523;-78
2023/05/26 02:07:53;;;;;;;26.00;6.85;;;8.50;99.90;;;;;;5047379;28;20437;-78
2023/05/26 02:10:18;;;;;;;22.42;5.43;;;8.40;99.90;;;;;;5045359;28;20426;-76
2023/05/26 02:12:44;;;;;;;30.48;8.48;;;8.50;99.90;;;;;;5043483;28;20469;-78
2023/05/26 02:15:10;;;;;;;32.03;6.05;;;8.40;99.90;;;;;;5041150;28;20881;-78
2023/05/26 02:17:36;;;;;;;28.38;7.22;;;8.40;99.90;;;;;;5046317;28;20548;-78
2023/05/26 02:20:02;;;;;;;24.23;5.68;;;8.40;99.90;;;;;;5047744;28;20423;-77
2023/05/26 02:22:28;;;;;;;26.77;7.03;;;8.40;99.90;;;;;;5045626;28;20436;-77
2023/05/26 02:24:54;;;;;;;35.13;8.45;;;8.50;99.90;;;;;;5046502;28;20437;-76
2023/05/26 02:27:20;;;;;;;27.77;6.90;;;8.40;99.90;;;;;;5048372;28;20955;-76
2023/05/26 02:29:45;;;;;;;31.23;6.40;;;8.40;99.90;;;;;;5047766;28;20500;-77
2023/05/26 02:32:11;;;;;;;31.85;7.35;;;8.40;99.90;;;;;;5046000;28;20440;-77
2023/05/26 02:34:37;;;;;;;24.70;6.93;;;8.20;99.90;;;;;;5047345;28;20545;-78
2023/05/26 02:37:03;;;;;;;28.70;6.53;;;8.30;99.90;;;;;;5047578;28;20461;-77
2023/05/26 02:39:28;;;;;;;38.70;9.53;;;8.20;99.90;;;;;;5045715;28;20794;-76
2023/05/26 02:41:54;;;;;;;27.67;7.17;;;8.10;99.90;;;;;;5046858;28;20456;-76
2023/05/26 02:44:20;;;;;;;32.07;7.60;;;8.20;99.90;;;;;;5027065;28;20395;-76
2023/05/26 02:46:45;;;;;;;26.07;7.70;;;8.20;99.90;;;;;;5043975;28;20422;-78
2023/05/26 02:49:11;;;;;;;27.53;6.97;;;8.20;99.90;;;;;;5047147;28;20852;-78
2023/05/26 02:51:36;;;;;;;28.60;6.65;;;8.10;99.90;;;;;;5047015;28;20807;-77
2023/05/26 02:54:02;;;;;;;28.75;7.43;;;8.20;99.90;;;;;;5045791;28;20440;-79
2023/05/26 02:56:28;;;;;;;34.60;8.88;;;8.10;99.90;;;;;;5044565;28;20784;-78
2023/05/26 02:58:54;;;;;;;33.60;7.78;;;8.00;99.90;;;;;;5045664;28;20413;-76
2023/05/26 03:01:21;;;;;;;27.70;7.45;;;8.00;99.90;;;;;;5028231;28;21032;-79
2023/05/26 03:03:47;;;;;;;28.63;7.33;;;8.00;99.90;;;;;;5046265;28;20479;-77
2023/05/26 03:06:12;;;;;;;31.03;6.43;;;8.20;99.90;;;;;;5028938;28;20433;-78
2023/05/26 03:08:38;;;;;;;28.33;6.53;;;8.20;99.90;;;;;;5043246;28;20828;-78
2023/05/26 03:11:05;;;;;;;29.20;7.03;;;8.10;99.90;;;;;;5045921;28;20417;-79
2023/05/26 03:13:30;;;;;;;27.65;6.18;;;8.10;99.90;;;;;;5044683;28;20525;-77
2023/05/26 03:15:56;;;;;;;31.70;6.97;;;8.20;99.90;;;;;;5040377;28;20508;-76
2023/05/26 03:18:22;;;;;;;28.70;6.40;;;8.00;99.90;;;;;;5043705;28;20509;-76
2023/05/26 03:20:48;;;;;;;22.43;6.10;;;7.80;99.90;;;;;;5045937;28;20990;-77
2023/05/26 03:23:16;;;;;;;31.33;7.70;;;8.00;99.90;;;;;;5044565;28;20576;-77
2023/05/26 03:25:42;;;;;;;23.48;5.28;;;8.10;99.90;;;;;;5040287;28;20432;-79
2023/05/26 03:28:07;;;;;;;29.40;6.87;;;8.20;99.90;;;;;;5042954;28;20430;-76
2023/05/26 03:30:33;;;;;;;29.83;7.63;;;8.10;99.90;;;;;;5041603;28;20428;-77
2023/05/26 03:33:00;;;;;;;25.37;6.90;;;8.20;99.90;;;;;;5060556;28;20512;-75
2023/05/26 03:35:26;;;;;;;30.80;7.70;;;7.80;99.90;;;;;;5035465;28;20418;-77
2023/05/26 03:37:52;;;;;;;32.53;7.70;;;7.80;99.90;;;;;;5039671;28;20521;-76
2023/05/26 03:40:17;;;;;;;28.27;6.75;;;7.70;99.90;;;;;;5045415;28;20409;-79
2023/05/26 03:42:43;;;;;;;25.15;6.40;;;7.70;99.90;;;;;;5043397;28;20471;-78
2023/05/26 03:45:09;;;;;;;27.63;6.75;;;7.70;99.90;;;;;;5041459;28;20512;-78
2023/05/26 03:47:35;;;;;;;27.05;6.68;;;7.70;99.90;;;;;;5043573;28;20443;-78
2023/05/26 03:50:01;;;;;;;24.73;6.03;;;7.50;99.90;;;;;;5046411;28;20787;-78
2023/05/26 03:52:27;;;;;;;29.55;6.38;;;7.70;99.90;;;;;;5045136;28;20927;-75
2023/05/26 03:54:52;;;;;;;25.63;6.55;;;7.90;99.90;;;;;;5030570;28;20422;-78
2023/05/26 03:57:18;;;;;;;29.50;6.50;;;8.00;99.90;;;;;;5040790;28;20440;-78
2023/05/26 03:59:43;;;;;;;31.45;7.35;;;8.00;99.90;;;;;;5044342;28;20911;-77
2023/05/26 04:02:09;;;;;;;27.77;7.72;;;8.00;99.90;;;;;;5048702;28;20444;-75
2023/05/26 04:04:35;;;;;;;26.00;6.93;;;7.90;99.90;;;;;;5049807;28;20919;-77
2023/05/26 04:07:01;;;;;;;22.10;6.05;;;7.90;99.90;;;;;;5049570;28;20433;-78
2023/05/26 04:09:26;;;;;;;23.83;6.68;;;8.00;99.90;;;;;;5048857;28;20444;-78
2023/05/26 04:11:52;;;;;;;26.02;7.20;;;8.10;99.90;;;;;;5049367;28;20494;-77
2023/05/26 04:14:18;;;;;;;25.77;6.30;;;8.30;99.90;;;;;;5047247;28;20516;-77
2023/05/26 04:16:43;;;;;;;28.90;6.43;;;8.20;99.90;;;;;;5049579;28;20472;-77
2023/05/26 04:19:09;;;;;;;26.80;6.03;;;8.10;99.90;;;;;;5049492;28;20502;-78
2023/05/26 04:21:36;;;;;;;26.60;7.07;;;8.30;99.90;;;;;;5046855;28;20456;-78
2023/05/26 04:24:02;;;;;;;25.93;6.80;;;8.40;99.90;;;;;;5049249;28;21080;-78
2023/05/26 04:26:33;;;;;;;33.10;7.15;;;8.40;99.90;;;;;;5046454;28;20432;-78
2023/05/26 04:29:01;;;;;;;31.65;6.18;;;8.40;99.90;;;;;;5048751;28;20936;-76
2023/05/26 04:31:30;;;;;;;26.10;7.15;;;8.40;99.90;;;;;;5047242;28;20760;-77
2023/05/26 04:33:57;;;;;;;25.55;6.75;;;8.60;99.90;;;;;;5025446;28;20420;-79
2023/05/26 04:36:23;;;;;;;26.35;7.30;;;8.50;99.90;;;;;;5049347;28;20482;-77
2023/05/26 04:38:49;;;;;;;31.77;7.37;;;8.60;99.90;;;;;;5048400;28;20425;-76
2023/05/26 04:41:16;;;;;;;24.60;5.90;;;8.80;99.90;;;;;;5046486;28;20803;-77
2023/05/26 04:43:43;;;;;;;29.58;7.10;;;9.10;99.90;;;;;;5046625;28;20500;-75
2023/05/26 04:46:10;;;;;;;30.15;6.82;;;8.80;99.90;;;;;;5049037;28;20497;-77
2023/05/26 04:48:37;;;;;;;26.98;6.88;;;8.80;99.90;;;;;;5048254;28;21037;-78
2023/05/26 04:51:05;;;;;;;21.17;6.40;;;8.80;99.90;;;;;;5046221;28;20952;-78
2023/05/26 04:53:31;;;;;;;26.43;7.67;;;8.70;99.90;;;;;;5045586;28;20469;-78
2023/05/26 04:56:00;;;;;;;30.70;6.97;;;8.70;99.90;;;;;;5048701;28;20931;-76
2023/05/26 04:58:26;;;;;;;25.13;6.38;;;8.90;99.90;;;;;;5061937;28;20419;-77
2023/05/26 05:00:53;;;;;;;25.53;7.17;;;9.00;99.90;;;;;;5046956;28;20413;-77
2023/05/26 05:03:21;;;;;;;26.10;6.53;;;8.90;99.90;;;;;;5040001;28;20899;-77
2023/05/26 05:05:47;;;;;;;24.60;6.13;;;9.00;99.90;;;;;;5060340;28;20442;-77
2023/05/26 05:08:13;;;;;;;20.65;6.47;;;9.10;99.90;;;;;;5043803;28;20437;-76
2023/05/26 05:10:39;;;;;;;23.30;6.15;;;9.20;99.90;;;;;;5027321;28;20427;-82
2023/05/26 05:13:05;;;;;;;26.00;6.07;;;9.10;99.90;;;;;;5034872;28;20722;-74
2023/05/26 05:15:31;;;;;;;27.20;7.50;;;9.30;99.90;;;;;;5049457;28;20799;-79
2023/05/26 05:17:58;;;;;;;29.20;7.40;;;9.40;99.90;;;;;;5054065;28;20417;-81
2023/05/26 05:20:27;;;;;;;27.95;7.63;;;9.50;99.90;;;;;;5051081;28;20425;-80
2023/05/26 05:22:53;;;;;;;27.00;7.43;;;9.50;99.90;;;;;;5053584;28;20460;-76
2023/05/26 05:25:19;;;;;;;24.27;6.95;;;9.60;99.90;;;;;;5049686;28;20512;-80
2023/05/26 05:27:44;;;;;;;30.60;8.00;;;9.70;99.90;;;;;;5050696;28;20586;-78
2023/05/26 05:30:11;;;;;;;26.93;7.13;;;9.70;99.90;;;;;;5047672;28;20418;-78
2023/05/26 05:32:37;;;;;;;27.17;6.07;;;9.80;99.90;;;;;;5047692;28;20834;-74
2023/05/26 05:35:04;;;;;;;21.75;5.35;;;9.90;99.90;;;;;;5048272;28;20421;-78
2023/05/26 05:37:30;;;;;;;25.33;5.07;;;10.00;99.90;;;;;;5049132;28;20923;-79
2023/05/26 05:39:55;;;;;;;22.57;4.97;;;10.10;99.90;;;;;;5049334;28;20421;-79
2023/05/26 05:42:24;;;;;;;26.77;7.00;;;10.20;99.90;;;;;;5030946;28;20998;-78
2023/05/26 05:44:50;;;;;;;24.88;6.07;;;10.20;99.90;;;;;;5043562;28;20516;-78
2023/05/26 05:47:16;;;;;;;24.73;5.93;;;10.40;99.90;;;;;;5045899;28;20926;-78
2023/05/26 05:49:42;;;;;;;21.20;6.13;;;10.30;99.90;;;;;;5046857;28;20413;-78
2023/05/26 05:52:08;;;;;;;26.25;6.78;;;10.40;99.90;;;;;;5046448;28;20397;-81
2023/05/26 05:54:33;;;;;;;24.58;5.53;;;10.70;99.90;;;;;;5046743;28;21070;-78
2023/05/26 05:57:00;;;;;;;22.90;7.47;;;10.50;99.90;;;;;;5043496;28;20844;-79
2023/05/26 05:59:25;;;;;;;19.98;5.82;;;10.70;99.90;;;;;;5046970;28;20471;-80
2023/05/26 06:01:51;;;;;;;25.38;5.45;;;10.90;99.90;;;;;;5030136;28;20400;-80
2023/05/26 06:04:17;;;;;;;21.95;6.32;;;10.90;99.90;;;;;;5047938;28;20434;-79
2023/05/26 06:06:43;;;;;;;23.73;5.22;;;10.80;99.90;;;;;;5047643;28;20421;-74
2023/05/26 06:09:08;;;;;;;29.08;6.13;;;11.00;99.90;;;;;;5047686;28;20425;-79
2023/05/26 06:11:34;;;;;;;25.25;5.05;;;11.00;99.90;;;;;;5063020;28;20549;-79
2023/05/26 06:14:02;;;;;;;19.67;5.73;;;11.10;99.90;;;;;;5046200;28;21457;-81
2023/05/26 06:16:27;;;;;;;21.57;5.43;;;11.10;99.90;;;;;;5048150;28;20429;-75
2023/05/26 06:18:53;;;;;;;18.80;5.50;;;11.20;99.90;;;;;;5046486;28;20452;-78
2023/05/26 06:21:18;;;;;;;23.27;4.72;;;11.10;99.90;;;;;;5054098;28;20475;-80
2023/05/26 06:23:44;;;;;;;27.33;6.35;;;11.20;99.90;;;;;;5057024;28;20417;-79
2023/05/26 06:26:10;;;;;;;24.52;6.72;;;11.30;99.90;;;;;;5044990;28;20489;-76
2023/05/26 06:28:35;;;;;;;18.87;5.07;;;11.30;99.90;;;;;;5056907;28;20643;-81
2023/05/26 06:31:01;;;;;;;21.57;5.10;;;11.40;99.90;;;;;;5058334;28;20500;-75
2023/05/26 06:33:27;;;;;;;24.27;5.53;;;11.40;99.90;;;;;;5060903;28;20443;-81
2023/05/26 06:35:52;;;;;;;20.42;4.93;;;11.40;99.90;;;;;;5058904;28;20431;-84
2023/05/26 06:38:18;;;;;;;17.45;4.57;;;11.50;99.90;;;;;;5046920;28;20426;-82
2023/05/26 06:40:44;;;;;;;20.58;4.60;;;11.40;99.90;;;;;;5046636;28;20433;-82
2023/05/26 06:43:09;;;;;;;21.23;5.03;;;11.40;99.90;;;;;;5045729;28;20467;-79
2023/05/26 06:45:35;;;;;;;20.90;5.47;;;11.30;99.90;;;;;;5044085;28;20433;-77
2023/05/26 06:48:00;;;;;;;17.52;3.97;;;11.50;99.90;;;;;;5045131;28;20436;-84
2023/05/26 06:50:26;;;;;;;19.50;4.85;;;11.50;99.90;;;;;;5048178;28;20406;-78
2023/05/26 06:52:52;;;;;;;21.27;5.20;;;11.60;99.90;;;;;;5045063;28;20772;-80
2023/05/26 06:55:19;;;;;;;21.30;5.97;;;11.70;99.90;;;;;;5044652;28;20437;-77
2023/05/26 06:57:45;;;;;;;20.25;4.68;;;11.90;99.90;;;;;;5046268;28;20430;-79
2023/05/26 07:00:11;;;;;;;21.65;5.47;;;12.60;99.90;;;;;;5045141;28;20952;-81
2023/05/26 07:02:38;;;;;;;18.15;4.95;;;13.20;99.90;;;;;;5045410;28;20438;-82
2023/05/26 07:05:04;;;;;;;14.77;4.70;;;13.30;99.90;;;;;;5046877;28;20434;-85
2023/05/26 07:07:30;;;;;;;21.90;5.13;;;13.70;99.90;;;;;;5044624;28;20430;-80
2023/05/26 07:09:56;;;;;;;17.80;4.50;;;14.20;99.90;;;;;;5028815;28;20456;-80
2023/05/26 07:12:21;;;;;;;18.00;5.30;;;14.20;99.90;;;;;;5042500;28;20950;-80
2023/05/26 07:14:47;;;;;;;22.23;5.43;;;14.60;99.90;;;;;;5042452;28;20422;-75
2023/05/26 07:17:14;;;;;;;19.70;4.83;;;14.40;99.90;;;;;;5046453;28;20421;-83
2023/05/26 07:19:39;;;;;;;16.25;4.28;;;14.60;99.90;;;;;;5044700;28;20950;-78
2023/05/26 07:22:05;;;;;;;19.58;4.38;;;14.20;99.90;;;;;;5037316;28;20435;-82
2023/05/26 07:24:31;;;;;;;17.20;4.53;;;14.70;99.90;;;;;;5038393;28;20422;-81
2023/05/26 07:26:56;;;;;;;14.07;4.07;;;15.10;99.90;;;;;;5024597;28;20476;-77
2023/05/26 07:29:22;;;;;;;16.67;5.10;;;15.10;99.90;;;;;;5043026;28;20423;-82
2023/05/26 07:31:48;;;;;;;17.63;5.07;;;14.60;99.90;;;;;;5046622;28;20518;-79
2023/05/26 07:34:13;;;;;;;17.23;4.97;;;14.90;99.90;;;;;;5038691;28;21043;-79
2023/05/26 07:36:39;;;;;;;19.83;4.23;;;15.10;99.90;;;;;;5038651;28;20467;-81
2023/05/26 07:39:05;;;;;;;17.40;4.88;;;14.80;99.90;;;;;;5045649;28;20417;-79
2023/05/26 07:41:30;;;;;;;17.48;4.63;;;14.40;99.90;;;;;;5040521;28;20465;-80
2023/05/26 07:43:56;;;;;;;17.30;4.25;;;13.70;99.90;;;;;;5045576;28;20445;-82
2023/05/26 07:46:22;;;;;;;21.53;5.13;;;13.70;99.90;;;;;;5045312;28;20421;-81
2023/05/26 07:48:48;;;;;;;13.97;4.20;;;13.50;99.90;;;;;;5046637;28;20427;-80
2023/05/26 07:51:14;;;;;;;21.45;3.83;;;13.60;99.90;;;;;;5046567;28;20492;-79
2023/05/26 07:53:40;;;;;;;17.88;6.07;;;13.30;99.90;;;;;;5044454;28;20433;-80
2023/05/26 07:56:06;;;;;;;17.17;5.43;;;13.30;99.90;;;;;;5044173;28;20479;-81
2023/05/26 07:58:32;;;;;;;22.42;6.05;;;13.50;99.90;;;;;;5043703;28;20441;-79
2023/05/26 08:00:58;;;;;;;13.98;3.83;;;13.60;99.90;;;;;;5042256;28;20429;-81
2023/05/26 08:03:23;;;;;;;19.33;6.07;;;13.60;99.90;;;;;;5046677;28;20449;-77
2023/05/26 08:05:49;;;;;;;19.55;5.30;;;13.30;99.90;;;;;;5047001;28;20850;-81
2023/05/26 08:08:15;;;;;;;17.63;4.78;;;13.30;99.90;;;;;;5050158;28;20970;-81
2023/05/26 08:10:41;;;;;;;17.77;4.47;;;13.70;99.90;;;;;;5046646;28;20425;-80
2023/05/26 08:13:07;;;;;;;15.20;4.57;;;13.80;99.90;;;;;;5046455;28;20443;-80
2023/05/26 08:15:32;;;;;;;13.90;3.67;;;13.70;99.90;;;;;;5044992;28;20514;-80
2023/05/26 08:17:58;;;;;;;18.10;4.70;;;13.90;99.90;;;;;;5043567;28;20483;-81
2023/05/26 08:20:24;;;;;;;14.70;3.47;;;13.80;99.90;;;;;;5031189;28;20943;-81
2023/05/26 08:22:51;;;;;;;18.27;5.20;;;13.80;99.90;;;;;;5045808;28;20468;-80
2023/05/26 08:25:16;;;;;;;14.57;4.47;;;13.90;99.90;;;;;;5036862;28;20447;-82
2023/05/26 08:27:42;;;;;;;16.67;3.80;;;14.00;99.90;;;;;;5044173;28;20456;-79
2023/05/26 08:30:08;;;;;;;14.98;3.72;;;14.10;99.90;;;;;;5043600;28;20437;-79
2023/05/26 08:32:37;;;;;;;14.73;3.75;;;13.80;99.90;;;;;;5044492;28;20432;-76
2023/05/26 08:35:03;;;;;;;14.73;4.43;;;14.00;99.90;;;;;;5067212;28;20424;-82
2023/05/26 08:37:29;;;;;;;11.13;3.35;;;14.10;99.90;;;;;;5068980;28;20415;-81
2023/05/26 08:39:57;;;;;;;13.75;3.30;;;14.00;99.90;;;;;;5056643;28;20424;-80
2023/05/26 08:42:28;;;;;;;15.15;4.07;;;14.30;99.90;;;;;;5045411;28;20429;-83
2023/05/26 08:44:55;;;;;;;14.80;4.22;;;14.20;99.90;;;;;;5044249;28;20425;-79
2023/05/26 08:47:22;;;;;;;12.63;3.28;;;14.30;99.90;;;;;;5048032;28;20878;-82
2023/05/26 08:50:00;;;;;;;15.77;4.10;;;14.20;99.90;;;;;;5049052;28;20440;-81
2023/05/26 08:52:26;;;;;;;12.10;3.97;;;14.00;99.90;;;;;;5047750;28;20440;-79
2023/05/26 08:54:52;;;;;;;17.23;3.75;;;14.40;99.90;;;;;;5048715;28;20791;-79
2023/05/26 08:57:19;;;;;;;18.40;3.90;;;14.40;99.90;;;;;;5046384;28;20441;-79
2023/05/26 08:59:47;;;;;;;16.23;4.25;;;14.70;99.90;;;;;;5045478;28;20774;-80
2023/05/26 09:02:12;;;;;;;14.27;4.05;;;14.40;99.90;;;;;;5048257;28;20962;-83
2023/05/26 09:04:38;;;;;;;17.35;3.58;;;14.40;99.90;;;;;;5031041;28;20461;-77
2023/05/26 09:07:08;;;;;;;14.55;3.60;;;14.60;99.90;;;;;;5049501;28;20432;-81
2023/05/26 09:09:34;;;;;;;17.15;4.22;;;14.20;99.90;;;;;;5044256;28;20792;-81
2023/05/26 09:12:00;;;;;;;13.00;4.20;;;14.60;99.90;;;;;;5040021;28;20924;-78
2023/05/26 09:14:26;;;;;;;14.35;4.05;;;15.10;99.90;;;;;;5042706;28;20524;-81
2023/05/26 09:16:54;;;;;;;18.77;4.40;;;14.60;99.90;;;;;;5046625;28;20423;-81
2023/05/26 09:19:20;;;;;;;13.50;4.03;;;14.60;99.90;;;;;;5043590;28;20525;-76
2023/05/26 09:21:47;;;;;;;21.55;5.32;;;15.10;99.90;;;;;;5049592;28;20512;-78
2023/05/26 09:24:18;;;;;;;11.95;3.38;;;15.00;99.90;;;;;;5047518;28;20471;-79
2023/05/26 09:26:46;;;;;;;16.30;4.00;;;15.10;99.90;;;;;;5046973;28;20456;-80
2023/05/26 09:29:12;;;;;;;13.07;3.78;;;15.40;99.90;;;;;;5042320;28;20508;-77
2023/05/26 09:31:43;;;;;;;17.58;5.25;;;15.00;99.90;;;;;;5047406;28;20966;-79
2023/05/26 09:34:10;;;;;;;13.63;3.40;;;14.90;99.90;;;;;;5046925;28;20423;-80
2023/05/26 09:36:38;;;;;;;13.18;3.00;;;14.70;99.90;;;;;;5043823;28;20436;-78
2023/05/26 09:39:07;;;;;;;13.18;4.40;;;14.50;99.90;;;;;;5038201;28;20419;-79
2023/05/26 09:41:36;;;;;;;13.15;3.47;;;14.80;99.90;;;;;;5050352;28;20413;-76
2023/05/26 09:44:16;;;;;;;18.42;5.97;;;14.50;99.90;;;;;;5048729;28;20428;-78
2023/05/26 09:46:45;;;;;;;14.50;4.33;;;14.40;99.90;;;;;;5049507;28;20428;-80
2023/05/26 09:49:18;;;;;;;13.13;3.73;;;14.70;99.90;;;;;;5053853;28;20521;-82
2023/05/26 09:51:49;;;;;;;16.95;4.43;;;14.60;99.90;;;;;;5048291;28;20444;-83
2023/05/26 09:54:15;;;;;;;14.95;4.00;;;14.80;99.90;;;;;;5027442;28;20431;-80
2023/05/26 09:56:47;;;;;;;17.25;4.30;;;14.60;99.90;;;;;;5038090;28;20497;-79
2023/05/26 09:59:15;;;;;;;13.20;4.32;;;14.90;99.90;;;;;;5043400;28;20423;-82
2023/05/26 10:01:42;;;;;;;14.82;4.40;;;14.80;99.90;;;;;;5037493;28;20942;-79
2023/05/26 10:04:09;;;;;;;12.25;4.20;;;14.80;99.90;;;;;;5042701;28;20417;-79
2023/05/26 10:06:38;;;;;;;17.27;4.87;;;15.10;99.90;;;;;;5039235;28;20433;-82
2023/05/26 10:09:05;;;;;;;10.93;3.73;;;15.20;99.90;;;;;;5040863;28;20448;-79
2023/05/26 10:11:34;;;;;;;18.75;4.50;;;15.00;99.90;;;;;;5043126;28;20421;-81
2023/05/26 10:14:00;;;;;;;17.52;4.72;;;14.90;99.90;;;;;;5038429;28;20436;-80
2023/05/26 10:16:26;;;;;;;14.20;3.83;;;15.30;99.90;;;;;;5040716;28;20477;-79
2023/05/26 10:18:52;;;;;;;17.05;5.03;;;15.30;99.90;;;;;;5042139;28;20480;-78
2023/05/26 10:21:24;;;;;;;14.32;4.25;;;15.40;99.90;;;;;;5040074;28;20425;-79
2023/05/26 10:24:06;;;;;;;17.35;3.92;;;15.10;99.90;;;;;;5042463;28;20440;-79
2023/05/26 10:26:58;;;;;;;14.77;3.55;;;15.30;99.90;;;;;;5042362;28;20911;-80
2023/05/26 10:29:33;;;;;;;15.80;4.68;;;15.50;99.90;;;;;;5039430;28;20555;-78
2023/05/26 10:31:59;;;;;;;15.10;3.65;;;15.50;99.90;;;;;;5058088;28;20421;-83
2023/05/26 10:34:42;;;;;;;15.48;4.35;;;15.40;99.90;;;;;;5040375;28;20808;-76
2023/05/26 10:37:15;;;;;;;15.52;4.05;;;14.90;99.90;;;;;;5049013;28;20892;-81
2023/05/26 10:39:41;;;;;;;19.70;4.40;;;15.10;99.90;;;;;;5044605;28;20417;-80
2023/05/26 10:42:18;;;;;;;21.52;4.50;;;15.00;99.90;;;;;;5047083;28;20874;-79
2023/05/26 10:44:54;;;;;;;15.25;4.28;;;15.40;99.90;;;;;;5038184;28;20421;-81
2023/05/26 10:47:20;;;;;;;14.82;4.15;;;15.60;99.90;;;;;;5049392;28;20479;-78
2023/05/26 10:49:57;;;;;;;14.82;4.95;;;15.60;99.90;;;;;;5051815;28;20481;-80
2023/05/26 10:52:26;;;;;;;15.32;4.22;;;15.80;99.90;;;;;;5051772;28;20429;-80
2023/05/26 10:54:53;;;;;;;15.45;4.22;;;15.60;99.90;;;;;;5048272;28;20429;-78
2023/05/26 10:57:33;;;;;;;15.43;4.85;;;15.70;99.90;;;;;;5043585;28;20512;-82
2023/05/26 11:00:18;;;;;;;18.50;4.30;;;15.90;99.90;;;;;;5062051;28;20429;-77
2023/05/26 11:02:44;;;;;;;15.20;4.28;;;15.50;99.90;;;;;;5042429;28;20429;-80
2023/05/26 11:05:31;;;;;;;16.33;4.32;;;15.60;99.90;;;;;;5043413;28;20479;-80
2023/05/26 11:07:57;;;;;;;13.18;3.97;;;15.70;99.90;;;;;;5051807;28;20444;-80
2023/05/26 11:10:23;;;;;;;15.00;4.70;;;15.60;99.90;;;;;;5041601;28;20424;-76
2023/05/26 11:12:54;;;;;;;16.35;4.75;;;15.40;99.90;;;;;;5044511;28;20799;-80
2023/05/26 11:15:31;;;;;;;14.93;4.28;;;15.70;99.90;;;;;;5045754;28;20464;-81
2023/05/26 11:18:01;;;;;;;17.33;3.85;;;15.50;99.90;;;;;;5042928;28;20428;-80
2023/05/26 11:20:27;;;;;;;14.73;4.30;;;15.90;99.90;;;;;;5046771;28;20425;-80
2023/05/26 11:22:53;;;;;;;14.20;3.78;;;16.00;99.90;;;;;;5048176;28;20418;-80
2023/05/26 11:25:19;;;;;;;15.80;5.03;;;15.90;99.90;;;;;;5045240;28;20488;-81
2023/05/26 11:27:49;;;;;;;15.57;3.92;;;15.90;99.90;;;;;;5045878;28;20448;-78
2023/05/26 11:30:19;;;;;;;20.10;4.67;;;15.80;99.90;;;;;;5042642;28;20436;-80
2023/05/26 11:32:49;;;;;;;14.88;4.43;;;15.60;99.90;;;;;;5038341;28;20437;-82
2023/05/26 11:35:29;;;;;;;14.03;4.67;;;15.80;99.90;;;;;;5024016;28;20425;-81
2023/05/26 11:37:59;;;;;;;17.73;4.63;;;16.10;99.90;;;;;;5039942;28;20425;-76
2023/05/26 11:40:28;;;;;;;17.45;5.78;;;15.80;99.90;;;;;;5030752;28;20423;-78
2023/05/26 11:42:54;;;;;;;15.40;3.87;;;15.90;99.90;;;;;;5029398;28;20430;-77
2023/05/26 11:45:21;;;;;;;18.40;4.90;;;16.10;99.90;;;;;;5038214;28;20899;-75
2023/05/26 11:47:48;;;;;;;12.55;3.42;;;16.00;99.90;;;;;;5039761;28;20431;-81
2023/05/26 11:50:14;;;;;;;16.73;4.60;;;15.90;99.90;;;;;;5038819;28;20840;-79
2023/05/26 11:52:45;;;;;;;19.65;6.35;;;15.90;99.90;;;;;;5033430;28;20421;-77
2023/05/26 11:55:11;;;;;;;16.70;4.82;;;15.70;99.90;;;;;;5039058;28;20425;-76
2023/05/26 11:57:38;;;;;;;15.20;4.72;;;15.80;99.90;;;;;;5042423;28;20432;-79
2023/05/26 12:00:10;;;;;;;18.30;5.78;;;15.60;99.90;;;;;;5042765;28;20421;-78
2023/05/26 12:02:36;;;;;;;19.23;4.68;;;15.90;99.90;;;;;;5061375;28;20465;-80
2023/05/26 12:05:29;;;;;;;21.30;4.78;;;15.70;99.90;;;;;;5047027;28;20698;-78
2023/05/26 12:08:09;;;;;;;18.70;5.03;;;16.30;99.90;;;;;;5042880;28;20864;-80
2023/05/26 12:10:38;;;;;;;18.50;5.65;;;16.00;99.90;;;;;;5036751;28;20528;-79
2023/05/26 12:13:04;;;;;;;17.02;5.22;;;15.90;99.90;;;;;;5041307;28;20759;-81
2023/05/26 12:15:30;;;;;;;21.63;5.53;;;16.00;99.90;;;;;;5040934;28;20437;-78
2023/05/26 12:17:57;;;;;;;21.33;6.10;;;15.30;99.90;;;;;;5046695;28;20424;-76
2023/05/26 12:20:23;;;;;;;17.15;5.63;;;15.50;99.90;;;;;;5044775;28;20635;-78
2023/05/26 12:23:11;;;;;;;18.37;5.53;;;15.80;99.90;;;;;;5048764;28;20496;-78
2023/05/26 12:25:37;;;;;;;20.15;6.30;;;15.50;99.90;;;;;;5046874;28;20425;-79
2023/05/26 12:28:02;;;;;;;19.27;5.35;;;15.50;99.90;;;;;;5046797;28;20432;-77
2023/05/26 12:30:33;;;;;;;16.48;5.30;;;15.60;99.90;;;;;;5050024;28;20413;-78
2023/05/26 12:32:59;;;;;;;18.20;5.60;;;16.00;99.90;;;;;;5050280;28;20927;-80
2023/05/26 12:35:24;;;;;;;19.80;4.68;;;15.50;99.90;;;;;;5049334;28;20428;-79
2023/05/26 12:37:50;;;;;;;15.82;5.30;;;15.80;99.90;;;;;;5050261;28;20421;-80
2023/05/26 12:40:15;;;;;;;20.80;5.00;;;15.60;99.90;;;;;;5048634;28;20440;-78
2023/05/26 12:42:41;;;;;;;15.50;4.50;;;15.70;99.90;;;;;;5047938;28;20592;-81